sensor_id;sensor_type;location;lat;lon;timestamp;P1;durP1;ratioP1;P2;durP2;ratioP2
51848;SDS011;38952;51.090;-1.832;2022-07-04T00:02:00;5.22;;;0.80;;
51848;SDS011;38952;51.090;-1.832;2022-07-04T00:04:26;3.05;;;0.98;;
51848;SDS011;38952;51.090;-1.832;2022-07-04T00:07:02;8.55;;;1.50;;
51848;SDS011;38952;51.090;-1.832;2022-07-04T00:09:27;5.32;;;1.08;;
51848;SDS011;38952;51.090;-1.832;2022-07-04T00:11:58;11.00;;;1.30;;
51848;SDS011;38952;51.090;-1.832;2022-07-04T00:14:23;6.80;;;1.30;;
51848;SDS011;38952;51.090;-1.832;2022-07-04T00:16:57;2.65;;;0.73;;
51848;SDS011;38952;51.090;-1.832;2022-07-04T00:19:46;3.78;;;0.93;;
51848;SDS011;38952;51.090;-1.832;2022-07-04T00:22:35;7.53;;;1.00;;
51848;SDS011;38952;51.090;-1.832;2022-07-04T00:25:44;6.95;;;1.15;;
51848;SDS011;38952;51.090;-1.832;2022-07-04T00:28:20;3.15;;;0.85;;
51848;SDS011;38952;51.090;-1.832;2022-07-04T00:30:46;1.38;;;0.65;;
51848;SDS011;38952;51.090;-1.832;2022-07-04T00:35:57;4.97;;;1.00;;
51848;SDS011;38952;51.090;-1.832;2022-07-04T00:38:37;4.70;;;1.00;;
51848;SDS011;38952;51.090;-1.832;2022-07-04T00:41:05;2.10;;;0.90;;
51848;SDS011;38952;51.090;-1.832;2022-07-04T00:44:03;6.38;;;0.93;;
51848;SDS011;38952;51.090;-1.832;2022-07-04T00:46:38;2.30;;;0.75;;
51848;SDS011;38952;51.090;-1.832;2022-07-04T00:51:55;5.57;;;1.17;;
51848;SDS011;38952;51.090;-1.832;2022-07-04T00:58:04;5.13;;;0.93;;
51848;SDS011;38952;51.090;-1.832;2022-07-04T01:01:17;3.35;;;0.65;;
51848;SDS011;38952;51.090;-1.832;2022-07-04T01:07:44;2.35;;;0.80;;
51848;SDS011;38952;51.090;-1.832;2022-07-04T01:13:22;5.05;;;0.85;;
51848;SDS011;38952;51.090;-1.832;2022-07-04T01:15:49;6.70;;;0.80;;
51848;SDS011;38952;51.090;-1.832;2022-07-04T01:18:23;3.72;;;1.05;;
51848;SDS011;38952;51.090;-1.832;2022-07-04T01:21:24;5.18;;;1.33;;
51848;SDS011;38952;51.090;-1.832;2022-07-04T01:24:07;1.95;;;0.80;;
51848;SDS011;38952;51.090;-1.832;2022-07-04T01:29:51;3.50;;;0.65;;
51848;SDS011;38952;51.090;-1.832;2022-07-04T01:32:25;2.50;;;1.00;;
51848;SDS011;38952;51.090;-1.832;2022-07-04T01:34:58;1.98;;;0.70;;
51848;SDS011;38952;51.090;-1.832;2022-07-04T01:40:56;1.63;;;0.52;;
51848;SDS011;38952;51.090;-1.832;2022-07-04T01:43:24;2.75;;;0.95;;
51848;SDS011;38952;51.090;-1.832;2022-07-04T01:45:50;2.45;;;0.75;;
51848;SDS011;38952;51.090;-1.832;2022-07-04T01:51:23;3.90;;;1.10;;
51848;SDS011;38952;51.090;-1.832;2022-07-04T01:53:56;3.30;;;0.75;;
51848;SDS011;38952;51.090;-1.832;2022-07-04T01:59:46;2.65;;;0.50;;
51848;SDS011;38952;51.090;-1.832;2022-07-04T02:02:47;1.98;;;0.80;;
51848;SDS011;38952;51.090;-1.832;2022-07-04T02:05:15;4.70;;;0.88;;
51848;SDS011;38952;51.090;-1.832;2022-07-04T02:11:36;1.13;;;0.70;;
51848;SDS011;38952;51.090;-1.832;2022-07-04T02:14:41;2.13;;;0.70;;
51848;SDS011;38952;51.090;-1.832;2022-07-04T02:17:08;6.97;;;0.60;;
51848;SDS011;38952;51.090;-1.832;2022-07-04T02:19:54;1.45;;;0.90;;
51848;SDS011;38952;51.090;-1.832;2022-07-04T02:22:48;3.47;;;0.90;;
51848;SDS011;38952;51.090;-1.832;2022-07-04T02:28:07;2.42;;;1.00;;
51848;SDS011;38952;51.090;-1.832;2022-07-04T02:30:55;1.35;;;0.70;;
51848;SDS011;38952;51.090;-1.832;2022-07-04T02:35:46;2.08;;;0.88;;
51848;SDS011;38952;51.090;-1.832;2022-07-04T02:38:11;5.88;;;1.13;;
51848;SDS011;38952;51.090;-1.832;2022-07-04T02:40:47;2.85;;;1.00;;
51848;SDS011;38952;51.090;-1.832;2022-07-04T02:43:24;2.25;;;0.93;;
51848;SDS011;38952;51.090;-1.832;2022-07-04T02:45:55;2.42;;;1.10;;
51848;SDS011;38952;51.090;-1.832;2022-07-04T02:48:20;3.90;;;0.90;;
51848;SDS011;38952;51.090;-1.832;2022-07-04T02:50:55;8.27;;;1.48;;
51848;SDS011;38952;51.090;-1.832;2022-07-04T02:53:23;7.28;;;1.00;;
51848;SDS011;38952;51.090;-1.832;2022-07-04T02:55:54;5.28;;;1.30;;
51848;SDS011;38952;51.090;-1.832;2022-07-04T02:58:40;2.70;;;1.00;;
51848;SDS011;38952;51.090;-1.832;2022-07-04T03:01:10;2.97;;;0.90;;
51848;SDS011;38952;51.090;-1.832;2022-07-04T03:03:54;5.30;;;1.20;;
51848;SDS011;38952;51.090;-1.832;2022-07-04T03:06:30;3.25;;;1.05;;
51848;SDS011;38952;51.090;-1.832;2022-07-04T03:09:08;4.40;;;1.05;;
51848;SDS011;38952;51.090;-1.832;2022-07-04T03:11:34;6.43;;;1.60;;
51848;SDS011;38952;51.090;-1.832;2022-07-04T03:13:59;3.42;;;1.10;;
51848;SDS011;38952;51.090;-1.832;2022-07-04T03:16:27;5.20;;;1.20;;
51848;SDS011;38952;51.090;-1.832;2022-07-04T03:18:53;5.00;;;1.08;;
51848;SDS011;38952;51.090;-1.832;2022-07-04T03:21:18;3.88;;;1.35;;
51848;SDS011;38952;51.090;-1.832;2022-07-04T03:23:46;5.10;;;1.40;;
51848;SDS011;38952;51.090;-1.832;2022-07-04T03:26:25;8.13;;;1.45;;
51848;SDS011;38952;51.090;-1.832;2022-07-04T03:28:52;3.38;;;1.23;;
51848;SDS011;38952;51.090;-1.832;2022-07-04T03:31:20;7.05;;;1.67;;
51848;SDS011;38952;51.090;-1.832;2022-07-04T03:33:46;5.40;;;1.60;;
51848;SDS011;38952;51.090;-1.832;2022-07-04T03:36:15;3.25;;;1.42;;
51848;SDS011;38952;51.090;-1.832;2022-07-04T03:38:49;2.92;;;1.63;;
51848;SDS011;38952;51.090;-1.832;2022-07-04T03:41:14;2.63;;;1.42;;
51848;SDS011;38952;51.090;-1.832;2022-07-04T03:43:44;6.03;;;1.27;;
51848;SDS011;38952;51.090;-1.832;2022-07-04T03:46:10;3.70;;;1.40;;
51848;SDS011;38952;51.090;-1.832;2022-07-04T03:48:35;3.40;;;1.38;;
51848;SDS011;38952;51.090;-1.832;2022-07-04T03:51:03;6.00;;;1.60;;
51848;SDS011;38952;51.090;-1.832;2022-07-04T03:53:29;3.58;;;1.30;;
51848;SDS011;38952;51.090;-1.832;2022-07-04T03:56:02;3.33;;;1.27;;
51848;SDS011;38952;51.090;-1.832;2022-07-04T03:58:47;5.97;;;1.63;;
51848;SDS011;38952;51.090;-1.832;2022-07-04T04:01:17;4.22;;;1.63;;
51848;SDS011;38952;51.090;-1.832;2022-07-04T04:03:43;4.95;;;1.33;;
51848;SDS011;38952;51.090;-1.832;2022-07-04T04:06:28;4.57;;;1.35;;
51848;SDS011;38952;51.090;-1.832;2022-07-04T04:08:54;4.20;;;1.33;;
51848;SDS011;38952;51.090;-1.832;2022-07-04T04:11:27;4.95;;;1.65;;
51848;SDS011;38952;51.090;-1.832;2022-07-04T04:13:58;6.30;;;1.20;;
51848;SDS011;38952;51.090;-1.832;2022-07-04T04:16:23;3.55;;;1.27;;
51848;SDS011;38952;51.090;-1.832;2022-07-04T04:18:49;9.05;;;1.60;;
51848;SDS011;38952;51.090;-1.832;2022-07-04T04:21:14;3.78;;;1.10;;
51848;SDS011;38952;51.090;-1.832;2022-07-04T04:23:42;2.03;;;1.23;;
51848;SDS011;38952;51.090;-1.832;2022-07-04T04:26:08;3.85;;;1.30;;
51848;SDS011;38952;51.090;-1.832;2022-07-04T04:28:35;2.50;;;1.08;;
51848;SDS011;38952;51.090;-1.832;2022-07-04T04:31:01;5.15;;;1.20;;
51848;SDS011;38952;51.090;-1.832;2022-07-04T04:33:44;2.92;;;1.10;;
51848;SDS011;38952;51.090;-1.832;2022-07-04T04:36:10;3.72;;;1.10;;
51848;SDS011;38952;51.090;-1.832;2022-07-04T04:38:35;5.28;;;1.40;;
51848;SDS011;38952;51.090;-1.832;2022-07-04T04:41:22;2.78;;;0.80;;
51848;SDS011;38952;51.090;-1.832;2022-07-04T04:43:55;1.67;;;0.77;;
51848;SDS011;38952;51.090;-1.832;2022-07-04T04:46:23;3.63;;;0.90;;
51848;SDS011;38952;51.090;-1.832;2022-07-04T04:48:48;3.55;;;1.02;;
51848;SDS011;38952;51.090;-1.832;2022-07-04T04:51:14;6.78;;;1.27;;
51848;SDS011;38952;51.090;-1.832;2022-07-04T04:53:39;3.67;;;1.20;;
51848;SDS011;38952;51.090;-1.832;2022-07-04T04:56:04;1.10;;;0.90;;
51848;SDS011;38952;51.090;-1.832;2022-07-04T04:58:30;4.47;;;1.00;;
51848;SDS011;38952;51.090;-1.832;2022-07-04T05:00:55;6.03;;;1.20;;
51848;SDS011;38952;51.090;-1.832;2022-07-04T05:03:21;4.93;;;1.00;;
51848;SDS011;38952;51.090;-1.832;2022-07-04T05:05:46;8.10;;;1.45;;
51848;SDS011;38952;51.090;-1.832;2022-07-04T05:08:12;3.25;;;0.80;;
51848;SDS011;38952;51.090;-1.832;2022-07-04T05:10:38;4.45;;;0.98;;
51848;SDS011;38952;51.090;-1.832;2022-07-04T05:13:04;4.32;;;1.02;;
51848;SDS011;38952;51.090;-1.832;2022-07-04T05:15:30;8.93;;;1.40;;
51848;SDS011;38952;51.090;-1.832;2022-07-04T05:17:56;5.03;;;0.75;;
51848;SDS011;38952;51.090;-1.832;2022-07-04T05:20:21;2.45;;;1.00;;
51848;SDS011;38952;51.090;-1.832;2022-07-04T05:22:47;2.80;;;0.88;;
51848;SDS011;38952;51.090;-1.832;2022-07-04T05:25:12;1.88;;;0.98;;
51848;SDS011;38952;51.090;-1.832;2022-07-04T05:27:38;3.35;;;1.00;;
51848;SDS011;38952;51.090;-1.832;2022-07-04T05:30:03;3.67;;;1.00;;
51848;SDS011;38952;51.090;-1.832;2022-07-04T05:32:29;8.98;;;1.30;;
51848;SDS011;38952;51.090;-1.832;2022-07-04T05:34:55;2.05;;;1.08;;
51848;SDS011;38952;51.090;-1.832;2022-07-04T05:37:21;2.20;;;1.00;;
51848;SDS011;38952;51.090;-1.832;2022-07-04T05:39:47;7.32;;;0.95;;
51848;SDS011;38952;51.090;-1.832;2022-07-04T05:42:12;1.23;;;0.88;;
51848;SDS011;38952;51.090;-1.832;2022-07-04T05:44:38;2.90;;;0.90;;
51848;SDS011;38952;51.090;-1.832;2022-07-04T05:47:03;3.97;;;1.10;;
51848;SDS011;38952;51.090;-1.832;2022-07-04T05:49:29;4.47;;;1.20;;
51848;SDS011;38952;51.090;-1.832;2022-07-04T05:51:56;3.05;;;1.00;;
51848;SDS011;38952;51.090;-1.832;2022-07-04T05:54:24;2.63;;;1.10;;
51848;SDS011;38952;51.090;-1.832;2022-07-04T05:56:50;5.72;;;1.42;;
51848;SDS011;38952;51.090;-1.832;2022-07-04T05:59:19;2.40;;;1.08;;
51848;SDS011;38952;51.090;-1.832;2022-07-04T06:01:56;9.23;;;1.40;;
51848;SDS011;38952;51.090;-1.832;2022-07-04T06:04:41;4.53;;;0.98;;
51848;SDS011;38952;51.090;-1.832;2022-07-04T06:07:16;2.05;;;1.00;;
51848;SDS011;38952;51.090;-1.832;2022-07-04T06:09:42;9.88;;;1.20;;
51848;SDS011;38952;51.090;-1.832;2022-07-04T06:12:09;3.55;;;1.27;;
51848;SDS011;38952;51.090;-1.832;2022-07-04T06:14:37;2.67;;;0.93;;
51848;SDS011;38952;51.090;-1.832;2022-07-04T06:17:08;2.63;;;0.80;;
51848;SDS011;38952;51.090;-1.832;2022-07-04T06:19:34;10.13;;;1.17;;
51848;SDS011;38952;51.090;-1.832;2022-07-04T06:22:38;5.38;;;1.00;;
51848;SDS011;38952;51.090;-1.832;2022-07-04T06:25:17;11.95;;;1.33;;
51848;SDS011;38952;51.090;-1.832;2022-07-04T06:27:45;1.30;;;0.90;;
51848;SDS011;38952;51.090;-1.832;2022-07-04T06:30:12;1.67;;;0.60;;
51848;SDS011;38952;51.090;-1.832;2022-07-04T06:32:44;4.15;;;1.25;;
51848;SDS011;38952;51.090;-1.832;2022-07-04T06:35:17;1.42;;;0.80;;
51848;SDS011;38952;51.090;-1.832;2022-07-04T06:38:03;7.03;;;0.88;;
51848;SDS011;38952;51.090;-1.832;2022-07-04T06:40:29;6.93;;;0.77;;
51848;SDS011;38952;51.090;-1.832;2022-07-04T06:42:54;2.03;;;0.50;;
51848;SDS011;38952;51.090;-1.832;2022-07-04T06:45:25;4.72;;;0.70;;
51848;SDS011;38952;51.090;-1.832;2022-07-04T06:47:51;2.05;;;0.70;;
51848;SDS011;38952;51.090;-1.832;2022-07-04T06:50:19;2.97;;;0.70;;
51848;SDS011;38952;51.090;-1.832;2022-07-04T06:52:45;2.55;;;0.73;;
51848;SDS011;38952;51.090;-1.832;2022-07-04T06:55:13;0.80;;;0.55;;
51848;SDS011;38952;51.090;-1.832;2022-07-04T06:57:43;2.08;;;0.57;;
51848;SDS011;38952;51.090;-1.832;2022-07-04T07:00:09;0.80;;;0.50;;
51848;SDS011;38952;51.090;-1.832;2022-07-04T07:02:37;6.15;;;1.38;;
51848;SDS011;38952;51.090;-1.832;2022-07-04T07:05:04;3.13;;;0.90;;
51848;SDS011;38952;51.090;-1.832;2022-07-04T07:07:33;1.83;;;0.82;;
51848;SDS011;38952;51.090;-1.832;2022-07-04T07:09:58;4.13;;;0.70;;
51848;SDS011;38952;51.090;-1.832;2022-07-04T07:12:40;3.45;;;0.80;;
51848;SDS011;38952;51.090;-1.832;2022-07-04T07:15:32;2.15;;;0.73;;
51848;SDS011;38952;51.090;-1.832;2022-07-04T07:18:02;2.30;;;0.70;;
51848;SDS011;38952;51.090;-1.832;2022-07-04T07:20:57;3.17;;;0.68;;
51848;SDS011;38952;51.090;-1.832;2022-07-04T07:23:23;2.00;;;0.60;;
51848;SDS011;38952;51.090;-1.832;2022-07-04T07:25:48;0.40;;;0.40;;
51848;SDS011;38952;51.090;-1.832;2022-07-04T07:28:16;3.25;;;1.02;;
51848;SDS011;38952;51.090;-1.832;2022-07-04T07:30:43;2.40;;;0.60;;
51848;SDS011;38952;51.090;-1.832;2022-07-04T07:33:08;3.05;;;0.60;;
51848;SDS011;38952;51.090;-1.832;2022-07-04T07:35:41;4.78;;;0.90;;
51848;SDS011;38952;51.090;-1.832;2022-07-04T07:38:07;4.57;;;0.90;;
51848;SDS011;38952;51.090;-1.832;2022-07-04T07:40:35;2.53;;;0.70;;
51848;SDS011;38952;51.090;-1.832;2022-07-04T07:43:13;2.42;;;0.70;;
51848;SDS011;38952;51.090;-1.832;2022-07-04T07:45:39;1.95;;;0.55;;
51848;SDS011;38952;51.090;-1.832;2022-07-04T07:48:05;3.28;;;0.85;;
51848;SDS011;38952;51.090;-1.832;2022-07-04T07:50:31;1.88;;;0.70;;
51848;SDS011;38952;51.090;-1.832;2022-07-04T07:53:02;2.53;;;0.68;;
51848;SDS011;38952;51.090;-1.832;2022-07-04T07:55:37;3.30;;;0.75;;
51848;SDS011;38952;51.090;-1.832;2022-07-04T07:58:06;1.50;;;0.52;;
51848;SDS011;38952;51.090;-1.832;2022-07-04T08:03:35;6.72;;;0.82;;
51848;SDS011;38952;51.090;-1.832;2022-07-04T08:06:19;1.30;;;0.80;;
51848;SDS011;38952;51.090;-1.832;2022-07-04T08:09:07;2.13;;;0.70;;
51848;SDS011;38952;51.090;-1.832;2022-07-04T08:11:44;2.55;;;0.73;;
51848;SDS011;38952;51.090;-1.832;2022-07-04T08:14:22;1.70;;;0.50;;
51848;SDS011;38952;51.090;-1.832;2022-07-04T08:19:51;3.42;;;0.73;;
51848;SDS011;38952;51.090;-1.832;2022-07-04T08:22:20;2.85;;;0.60;;
51848;SDS011;38952;51.090;-1.832;2022-07-04T08:24:45;4.45;;;0.68;;
51848;SDS011;38952;51.090;-1.832;2022-07-04T08:27:11;3.88;;;0.70;;
51848;SDS011;38952;51.090;-1.832;2022-07-04T08:29:38;1.27;;;0.30;;
51848;SDS011;38952;51.090;-1.832;2022-07-04T08:32:04;1.55;;;0.50;;
51848;SDS011;38952;51.090;-1.832;2022-07-04T08:34:39;3.97;;;0.68;;
51848;SDS011;38952;51.090;-1.832;2022-07-04T08:37:07;2.83;;;0.47;;
51848;SDS011;38952;51.090;-1.832;2022-07-04T08:39:33;1.75;;;0.60;;
51848;SDS011;38952;51.090;-1.832;2022-07-04T08:41:59;5.47;;;0.50;;
51848;SDS011;38952;51.090;-1.832;2022-07-04T08:44:28;1.30;;;0.32;;
51848;SDS011;38952;51.090;-1.832;2022-07-04T08:46:54;2.47;;;0.52;;
51848;SDS011;38952;51.090;-1.832;2022-07-04T08:49:23;1.73;;;0.47;;
51848;SDS011;38952;51.090;-1.832;2022-07-04T08:52:02;2.90;;;0.60;;
51848;SDS011;38952;51.090;-1.832;2022-07-04T08:54:30;3.10;;;0.95;;
51848;SDS011;38952;51.090;-1.832;2022-07-04T08:57:16;1.90;;;0.43;;
51848;SDS011;38952;51.090;-1.832;2022-07-04T09:00:02;3.05;;;0.40;;
51848;SDS011;38952;51.090;-1.832;2022-07-04T09:02:29;1.20;;;0.47;;
51848;SDS011;38952;51.090;-1.832;2022-07-04T09:04:54;2.67;;;0.70;;
51848;SDS011;38952;51.090;-1.832;2022-07-04T09:07:20;5.82;;;0.80;;
51848;SDS011;38952;51.090;-1.832;2022-07-04T09:09:45;1.85;;;0.50;;
51848;SDS011;38952;51.090;-1.832;2022-07-04T09:12:11;1.45;;;0.50;;
51848;SDS011;38952;51.090;-1.832;2022-07-04T09:14:37;3.88;;;0.50;;
51848;SDS011;38952;51.090;-1.832;2022-07-04T09:17:04;6.30;;;0.80;;
51848;SDS011;38952;51.090;-1.832;2022-07-04T09:19:30;2.08;;;0.43;;
51848;SDS011;38952;51.090;-1.832;2022-07-04T09:21:59;3.30;;;0.77;;
51848;SDS011;38952;51.090;-1.832;2022-07-04T09:27:33;3.50;;;0.70;;
51848;SDS011;38952;51.090;-1.832;2022-07-04T09:30:07;2.67;;;0.57;;
51848;SDS011;38952;51.090;-1.832;2022-07-04T09:32:43;2.03;;;0.80;;
51848;SDS011;38952;51.090;-1.832;2022-07-04T09:35:18;0.93;;;0.60;;
51848;SDS011;38952;51.090;-1.832;2022-07-04T09:37:49;0.75;;;0.35;;
51848;SDS011;38952;51.090;-1.832;2022-07-04T09:40:31;1.70;;;0.43;;
51848;SDS011;38952;51.090;-1.832;2022-07-04T09:43:01;2.22;;;0.40;;
51848;SDS011;38952;51.090;-1.832;2022-07-04T09:45:36;3.55;;;0.47;;
51848;SDS011;38952;51.090;-1.832;2022-07-04T09:48:19;2.20;;;0.70;;
51848;SDS011;38952;51.090;-1.832;2022-07-04T09:50:44;1.40;;;0.57;;
51848;SDS011;38952;51.090;-1.832;2022-07-04T09:53:10;2.45;;;0.75;;
51848;SDS011;38952;51.090;-1.832;2022-07-04T09:55:38;1.35;;;0.30;;
51848;SDS011;38952;51.090;-1.832;2022-07-04T09:58:07;0.70;;;0.25;;
51848;SDS011;38952;51.090;-1.832;2022-07-04T10:00:38;0.88;;;0.43;;
51848;SDS011;38952;51.090;-1.832;2022-07-04T10:06:09;2.45;;;0.50;;
51848;SDS011;38952;51.090;-1.832;2022-07-04T10:08:41;2.45;;;0.60;;
51848;SDS011;38952;51.090;-1.832;2022-07-04T10:11:08;4.03;;;0.55;;
51848;SDS011;38952;51.090;-1.832;2022-07-04T10:13:39;3.92;;;0.63;;
51848;SDS011;38952;51.090;-1.832;2022-07-04T10:16:04;1.20;;;0.63;;
51848;SDS011;38952;51.090;-1.832;2022-07-04T10:18:33;5.22;;;0.80;;
51848;SDS011;38952;51.090;-1.832;2022-07-04T10:20:59;4.15;;;1.00;;
51848;SDS011;38952;51.090;-1.832;2022-07-04T10:23:25;5.75;;;0.82;;
51848;SDS011;38952;51.090;-1.832;2022-07-04T10:25:56;2.85;;;0.80;;
51848;SDS011;38952;51.090;-1.832;2022-07-04T10:28:22;3.20;;;0.43;;
51848;SDS011;38952;51.090;-1.832;2022-07-04T10:30:50;3.03;;;0.45;;
51848;SDS011;38952;51.090;-1.832;2022-07-04T10:33:22;2.95;;;0.57;;
51848;SDS011;38952;51.090;-1.832;2022-07-04T10:35:59;4.90;;;0.50;;
51848;SDS011;38952;51.090;-1.832;2022-07-04T10:38:27;6.05;;;0.70;;
51848;SDS011;38952;51.090;-1.832;2022-07-04T10:40:54;1.65;;;0.50;;
51848;SDS011;38952;51.090;-1.832;2022-07-04T10:45:55;1.75;;;0.43;;
51848;SDS011;38952;51.090;-1.832;2022-07-04T10:48:24;3.45;;;0.47;;
51848;SDS011;38952;51.090;-1.832;2022-07-04T10:50:59;2.50;;;0.73;;
51848;SDS011;38952;51.090;-1.832;2022-07-04T10:53:26;4.55;;;0.70;;
51848;SDS011;38952;51.090;-1.832;2022-07-04T10:55:52;1.45;;;0.30;;
51848;SDS011;38952;51.090;-1.832;2022-07-04T11:01:14;2.22;;;0.55;;
51848;SDS011;38952;51.090;-1.832;2022-07-04T11:03:44;1.85;;;0.65;;
51848;SDS011;38952;51.090;-1.832;2022-07-04T11:12:02;1.38;;;0.73;;
51848;SDS011;38952;51.090;-1.832;2022-07-04T11:14:36;1.85;;;0.60;;
51848;SDS011;38952;51.090;-1.832;2022-07-04T11:17:13;2.38;;;0.50;;
51848;SDS011;38952;51.090;-1.832;2022-07-04T11:19:41;3.28;;;0.65;;
51848;SDS011;38952;51.090;-1.832;2022-07-04T11:22:07;1.98;;;0.60;;
51848;SDS011;38952;51.090;-1.832;2022-07-04T11:24:37;1.13;;;0.57;;
51848;SDS011;38952;51.090;-1.832;2022-07-04T11:27:06;1.55;;;0.43;;
51848;SDS011;38952;51.090;-1.832;2022-07-04T11:29:33;4.43;;;0.68;;
51848;SDS011;38952;51.090;-1.832;2022-07-04T11:31:59;1.58;;;0.45;;
51848;SDS011;38952;51.090;-1.832;2022-07-04T11:34:34;3.45;;;0.38;;
51848;SDS011;38952;51.090;-1.832;2022-07-04T11:37:01;3.38;;;0.70;;
51848;SDS011;38952;51.090;-1.832;2022-07-04T11:39:28;2.00;;;0.65;;
51848;SDS011;38952;51.090;-1.832;2022-07-04T11:41:53;0.70;;;0.45;;
51848;SDS011;38952;51.090;-1.832;2022-07-04T11:44:45;4.63;;;0.82;;
51848;SDS011;38952;51.090;-1.832;2022-07-04T11:47:48;1.65;;;0.50;;
51848;SDS011;38952;51.090;-1.832;2022-07-04T11:50:14;2.20;;;0.68;;
51848;SDS011;38952;51.090;-1.832;2022-07-04T11:52:46;2.78;;;0.60;;
51848;SDS011;38952;51.090;-1.832;2022-07-04T11:55:15;3.45;;;0.70;;
51848;SDS011;38952;51.090;-1.832;2022-07-04T11:57:46;1.67;;;0.73;;
51848;SDS011;38952;51.090;-1.832;2022-07-04T12:00:15;1.65;;;0.77;;
51848;SDS011;38952;51.090;-1.832;2022-07-04T12:02:46;3.55;;;0.60;;
51848;SDS011;38952;51.090;-1.832;2022-07-04T12:05:16;2.42;;;0.68;;
51848;SDS011;38952;51.090;-1.832;2022-07-04T12:07:43;3.08;;;0.65;;
51848;SDS011;38952;51.090;-1.832;2022-07-04T12:15:25;2.92;;;0.80;;
51848;SDS011;38952;51.090;-1.832;2022-07-04T12:18:00;2.80;;;0.70;;
51848;SDS011;38952;51.090;-1.832;2022-07-04T12:20:28;3.63;;;0.57;;
51848;SDS011;38952;51.090;-1.832;2022-07-04T12:22:58;2.03;;;0.70;;
51848;SDS011;38952;51.090;-1.832;2022-07-04T12:25:26;1.92;;;0.60;;
51848;SDS011;38952;51.090;-1.832;2022-07-04T12:28:09;2.47;;;0.77;;
51848;SDS011;38952;51.090;-1.832;2022-07-04T12:30:37;1.50;;;0.60;;
51848;SDS011;38952;51.090;-1.832;2022-07-04T12:33:13;0.43;;;0.30;;
51848;SDS011;38952;51.090;-1.832;2022-07-04T12:38:35;3.55;;;0.60;;
51848;SDS011;38952;51.090;-1.832;2022-07-04T12:41:03;2.40;;;0.63;;
51848;SDS011;38952;51.090;-1.832;2022-07-04T12:46:25;1.05;;;0.52;;
51848;SDS011;38952;51.090;-1.832;2022-07-04T12:48:52;2.47;;;0.30;;
51848;SDS011;38952;51.090;-1.832;2022-07-04T12:53:52;2.60;;;0.65;;
51848;SDS011;38952;51.090;-1.832;2022-07-04T12:58:54;0.70;;;0.30;;
51848;SDS011;38952;51.090;-1.832;2022-07-04T13:01:20;1.10;;;0.40;;
51848;SDS011;38952;51.090;-1.832;2022-07-04T13:03:46;4.25;;;0.43;;
51848;SDS011;38952;51.090;-1.832;2022-07-04T13:06:11;1.05;;;0.50;;
51848;SDS011;38952;51.090;-1.832;2022-07-04T13:08:37;1.65;;;0.47;;
51848;SDS011;38952;51.090;-1.832;2022-07-04T13:14:29;1.35;;;0.30;;
51848;SDS011;38952;51.090;-1.832;2022-07-04T13:16:57;0.40;;;0.30;;
51848;SDS011;38952;51.090;-1.832;2022-07-04T13:19:25;0.45;;;0.30;;
51848;SDS011;38952;51.090;-1.832;2022-07-04T13:21:54;1.20;;;0.40;;
51848;SDS011;38952;51.090;-1.832;2022-07-04T13:24:35;1.55;;;0.52;;
51848;SDS011;38952;51.090;-1.832;2022-07-04T13:27:53;1.08;;;0.55;;
51848;SDS011;38952;51.090;-1.832;2022-07-04T13:30:05;0.68;;;0.47;;
51848;SDS011;38952;51.090;-1.832;2022-07-04T13:32:48;2.20;;;0.30;;
51848;SDS011;38952;51.090;-1.832;2022-07-04T13:35:13;1.23;;;0.30;;
51848;SDS011;38952;51.090;-1.832;2022-07-04T13:37:39;0.80;;;0.40;;
51848;SDS011;38952;51.090;-1.832;2022-07-04T13:40:07;4.05;;;0.30;;
51848;SDS011;38952;51.090;-1.832;2022-07-04T13:42:33;1.55;;;0.40;;
51848;SDS011;38952;51.090;-1.832;2022-07-04T13:45:40;1.13;;;0.30;;
51848;SDS011;38952;51.090;-1.832;2022-07-04T13:48:12;0.73;;;0.20;;
51848;SDS011;38952;51.090;-1.832;2022-07-04T13:50:37;1.75;;;0.20;;
51848;SDS011;38952;51.090;-1.832;2022-07-04T13:53:04;1.05;;;0.20;;
51848;SDS011;38952;51.090;-1.832;2022-07-04T13:55:33;3.92;;;0.40;;
51848;SDS011;38952;51.090;-1.832;2022-07-04T13:58:06;0.50;;;0.30;;
51848;SDS011;38952;51.090;-1.832;2022-07-04T14:00:33;1.38;;;0.40;;
51848;SDS011;38952;51.090;-1.832;2022-07-04T14:03:05;4.93;;;0.60;;
51848;SDS011;38952;51.090;-1.832;2022-07-04T14:05:41;1.42;;;0.50;;
51848;SDS011;38952;51.090;-1.832;2022-07-04T14:08:24;0.85;;;0.40;;
51848;SDS011;38952;51.090;-1.832;2022-07-04T14:11:08;2.75;;;0.30;;
51848;SDS011;38952;51.090;-1.832;2022-07-04T14:14:23;1.85;;;0.60;;
51848;SDS011;38952;51.090;-1.832;2022-07-04T14:17:37;0.60;;;0.40;;
51848;SDS011;38952;51.090;-1.832;2022-07-04T14:20:12;0.32;;;0.32;;
51848;SDS011;38952;51.090;-1.832;2022-07-04T14:23:35;0.63;;;0.30;;
51848;SDS011;38952;51.090;-1.832;2022-07-04T14:30:15;1.20;;;0.40;;
51848;SDS011;38952;51.090;-1.832;2022-07-04T14:56:40;0.73;;;0.50;;
51848;SDS011;38952;51.090;-1.832;2022-07-04T15:14:23;0.47;;;0.47;;
51848;SDS011;38952;51.090;-1.832;2022-07-04T15:17:32;1.63;;;0.80;;
51848;SDS011;38952;51.090;-1.832;2022-07-04T15:20:47;0.60;;;0.60;;
51848;SDS011;38952;51.090;-1.832;2022-07-04T15:33:58;1.13;;;0.50;;
51848;SDS011;38952;51.090;-1.832;2022-07-04T15:37:14;1.05;;;0.60;;
51848;SDS011;38952;51.090;-1.832;2022-07-04T15:51:22;1.27;;;0.50;;
51848;SDS011;38952;51.090;-1.832;2022-07-04T15:54:38;1.65;;;0.60;;
51848;SDS011;38952;51.090;-1.832;2022-07-04T16:35:15;2.53;;;1.00;;
51848;SDS011;38952;51.090;-1.832;2022-07-04T16:41:48;0.73;;;0.70;;
51848;SDS011;38952;51.090;-1.832;2022-07-04T16:48:38;1.52;;;0.70;;
51848;SDS011;38952;51.090;-1.832;2022-07-04T16:55:26;1.10;;;0.60;;
51848;SDS011;38952;51.090;-1.832;2022-07-04T16:58:39;1.27;;;0.60;;
51848;SDS011;38952;51.090;-1.832;2022-07-04T17:01:43;1.55;;;0.60;;
51848;SDS011;38952;51.090;-1.832;2022-07-04T17:04:40;0.93;;;0.60;;
51848;SDS011;38952;51.090;-1.832;2022-07-04T17:07:53;0.40;;;0.40;;
51848;SDS011;38952;51.090;-1.832;2022-07-04T17:31:14;1.40;;;0.95;;
51848;SDS011;38952;51.090;-1.832;2022-07-04T18:53:02;0.85;;;0.60;;
51848;SDS011;38952;51.090;-1.832;2022-07-04T18:55:39;5.60;;;0.80;;
51848;SDS011;38952;51.090;-1.832;2022-07-04T18:58:05;0.55;;;0.50;;
51848;SDS011;38952;51.090;-1.832;2022-07-04T19:00:33;1.77;;;0.70;;
51848;SDS011;38952;51.090;-1.832;2022-07-04T19:02:59;3.15;;;0.57;;
51848;SDS011;38952;51.090;-1.832;2022-07-04T19:05:25;1.25;;;0.50;;
51848;SDS011;38952;51.090;-1.832;2022-07-04T19:08:08;1.70;;;0.70;;
51848;SDS011;38952;51.090;-1.832;2022-07-04T19:28:46;0.52;;;0.35;;
51848;SDS011;38952;51.090;-1.832;2022-07-04T19:31:16;1.52;;;1.23;;
51848;SDS011;38952;51.090;-1.832;2022-07-04T19:33:46;1.45;;;0.45;;
51848;SDS011;38952;51.090;-1.832;2022-07-04T19:36:13;0.80;;;0.57;;
51848;SDS011;38952;51.090;-1.832;2022-07-04T19:44:41;4.72;;;0.60;;
51848;SDS011;38952;51.090;-1.832;2022-07-04T19:47:06;5.18;;;0.75;;
51848;SDS011;38952;51.090;-1.832;2022-07-04T19:49:40;1.63;;;0.70;;
51848;SDS011;38952;51.090;-1.832;2022-07-04T19:52:07;1.83;;;0.77;;
51848;SDS011;38952;51.090;-1.832;2022-07-04T19:55:01;1.88;;;0.57;;
51848;SDS011;38952;51.090;-1.832;2022-07-04T19:57:38;4.38;;;0.50;;
51848;SDS011;38952;51.090;-1.832;2022-07-04T20:00:10;1.83;;;0.70;;
51848;SDS011;38952;51.090;-1.832;2022-07-04T20:16:14;0.57;;;0.47;;
51848;SDS011;38952;51.090;-1.832;2022-07-04T20:18:54;2.67;;;0.50;;
51848;SDS011;38952;51.090;-1.832;2022-07-04T20:22:02;3.90;;;0.70;;
51848;SDS011;38952;51.090;-1.832;2022-07-04T20:34:04;8.52;;;0.70;;
51848;SDS011;38952;51.090;-1.832;2022-07-04T20:36:30;0.85;;;0.60;;
51848;SDS011;38952;51.090;-1.832;2022-07-04T20:39:00;0.80;;;0.55;;
51848;SDS011;38952;51.090;-1.832;2022-07-04T20:41:29;2.30;;;0.60;;
51848;SDS011;38952;51.090;-1.832;2022-07-04T20:43:57;2.22;;;0.73;;
51848;SDS011;38952;51.090;-1.832;2022-07-04T20:46:24;1.15;;;0.40;;
51848;SDS011;38952;51.090;-1.832;2022-07-04T20:49:05;4.88;;;0.60;;
51848;SDS011;38952;51.090;-1.832;2022-07-04T20:51:31;1.73;;;0.40;;